createdAt,value
2023-04-26T00:05:55.480Z,9.33
2023-04-26T00:08:51.814Z,9.43
2023-04-26T00:12:46.380Z,9.31
2023-04-26T00:22:29.166Z,9.21
2023-04-26T00:23:58.317Z,9.24
2023-04-26T00:39:34.763Z,8.91
2023-04-26T00:42:31.192Z,8.94
2023-04-26T00:45:27.126Z,8.98
2023-04-26T00:47:25.283Z,8.81
2023-04-26T00:52:17.647Z,8.86
2023-04-26T00:54:15.425Z,8.80
2023-04-26T00:59:36.866Z,8.68
2023-04-26T01:02:04.159Z,8.79
2023-04-26T01:05:29.392Z,8.63
2023-04-26T01:10:22.156Z,8.55
2023-04-26T01:13:18.254Z,8.62
2023-04-26T01:15:17.815Z,8.53
2023-04-26T01:18:14.143Z,8.55
2023-04-26T01:22:37.276Z,8.50
2023-04-26T01:25:33.304Z,8.52
2023-04-26T01:40:07.194Z,8.48
2023-04-26T01:42:34.514Z,8.40
2023-04-26T01:47:27.711Z,8.40
2023-04-26T01:52:49.360Z,8.28
2023-04-26T02:03:00.967Z,8.28
2023-04-26T02:04:59.040Z,8.19
2023-04-26T02:07:26.342Z,8.34
2023-04-26T02:11:20.523Z,8.36
2023-04-26T02:13:47.655Z,8.36
2023-04-26T02:19:09.410Z,8.22
2023-04-26T02:22:34.802Z,8.20
2023-04-26T02:25:31.479Z,8.25
2023-04-26T02:26:59.900Z,8.30
2023-04-26T02:29:42.146Z,8.20
2023-04-26T02:32:24.592Z,8.22
2023-04-26T02:35:20.643Z,8.12
2023-04-26T02:41:40.343Z,8.15
2023-04-26T02:43:09.404Z,8.29
2023-04-26T02:47:33.027Z,8.08
2023-04-26T02:50:58.161Z,8.11
2023-04-26T02:52:27.112Z,8.10
2023-04-26T02:56:21.241Z,8.22
2023-04-26T02:57:50.194Z,8.15
2023-04-26T02:59:19.211Z,8.19
2023-04-26T03:02:44.621Z,8.12
2023-04-26T03:04:42.543Z,8.12
2023-04-26T03:09:34.893Z,8.00
2023-04-26T03:22:14.029Z,8.20
2023-04-26T03:30:29.768Z,8.18
2023-04-26T03:33:27.250Z,8.26
2023-04-26T03:35:24.396Z,8.30
2023-04-26T03:38:20.375Z,8.26
2023-04-26T03:39:49.448Z,8.29
2023-04-26T03:41:47.453Z,8.30
2023-04-26T03:43:45.446Z,8.30
2023-04-26T03:45:14.389Z,8.25
2023-04-26T03:54:57.804Z,8.08
2023-04-26T03:59:49.925Z,8.01
2023-04-26T04:02:46.590Z,8.05
2023-04-26T04:04:15.590Z,7.92
2023-04-26T04:08:10.305Z,7.86
2023-04-26T04:10:37.338Z,7.86
2023-04-26T04:13:33.792Z,7.90
2023-04-26T04:17:28.408Z,7.79
2023-04-26T04:18:57.321Z,7.85
2023-04-26T04:20:55.437Z,7.87
2023-04-26T04:23:51.604Z,7.80
2023-04-26T04:27:17.046Z,7.79
2023-04-26T04:29:15.451Z,7.89
2023-04-26T04:32:40.875Z,7.77
2023-04-26T04:36:35.268Z,7.79
2023-04-26T04:39:31.474Z,7.77
2023-04-26T04:43:25.795Z,7.74
2023-04-26T04:44:54.775Z,7.77
2023-04-26T04:48:20.192Z,7.79
2023-04-26T04:50:18.374Z,7.82
2023-04-26T04:52:45.282Z,7.82
2023-04-26T04:55:13.121Z,7.93
2023-04-26T04:57:11.178Z,7.98
2023-04-26T05:01:05.627Z,8.18
2023-04-26T05:07:55.369Z,8.37
2023-04-26T05:09:24.394Z,8.37
2023-04-26T05:12:21.278Z,8.36
2023-04-26T05:13:52.734Z,8.44
2023-04-26T05:17:45.502Z,8.55
2023-04-26T05:19:14.860Z,8.56
2023-04-26T05:21:12.931Z,8.55
2023-04-26T05:22:42.193Z,8.63
2023-04-26T05:24:40.277Z,8.63
2023-04-26T05:26:09.307Z,8.65
2023-04-26T05:38:18.297Z,8.94
2023-04-26T05:40:45.466Z,8.91
2023-04-26T05:42:16.376Z,8.94
2023-04-26T05:51:30.401Z,9.01
2023-04-26T05:57:21.195Z,9.10
2023-04-26T06:01:16.101Z,9.10
2023-04-26T06:10:01.438Z,9.15
2023-04-26T06:12:57.951Z,9.18
2023-04-26T06:15:25.068Z,9.20
2023-04-26T06:16:54.467Z,9.24
2023-04-26T06:22:17.233Z,9.31
2023-04-26T06:24:15.245Z,9.38
2023-04-26T06:27:40.528Z,9.43
2023-04-26T06:31:06.435Z,9.38
2023-04-26T06:35:30.492Z,9.54
2023-04-26T06:37:58.056Z,9.33
2023-04-26T06:40:45.017Z,9.36
2023-04-26T06:43:41.725Z,9.40
2023-04-26T06:52:55.630Z,9.54
2023-04-26T06:56:49.782Z,9.60
2023-04-26T06:58:47.856Z,9.66
2023-04-26T07:08:02.597Z,9.83
2023-04-26T07:09:31.570Z,9.89
2023-04-26T07:15:22.440Z,9.89
2023-04-26T07:19:16.525Z,10.01
2023-04-26T07:26:05.702Z,10.08
2023-04-26T07:28:32.982Z,10.15
2023-04-26T07:31:00.189Z,10.18
2023-04-26T07:32:58.431Z,10.17
2023-04-26T07:38:20.545Z,10.30
2023-04-26T07:39:49.261Z,10.45
2023-04-26T07:43:14.576Z,10.66
2023-04-26T07:51:59.594Z,10.85
2023-04-26T07:58:19.092Z,11.15
2023-04-26T07:59:48.009Z,11.18
2023-04-26T08:02:15.103Z,11.25
2023-04-26T08:05:41.620Z,11.28
2023-04-26T08:08:07.321Z,11.19
2023-04-26T08:12:01.676Z,11.19
2023-04-26T08:16:36.826Z,11.15
2023-04-26T08:21:29.090Z,11.09
2023-04-26T08:23:56.411Z,11.21
2023-04-26T08:39:00.347Z,11.11
2023-04-26T08:42:54.761Z,11.25
2023-04-26T08:49:14.454Z,11.28
2023-04-26T08:54:36.340Z,11.03
2023-04-26T08:56:34.381Z,11.06
2023-04-26T08:58:03.420Z,11.11
2023-04-26T09:10:12.624Z,11.24
2023-04-26T09:12:10.701Z,11.10
2023-04-26T09:14:38.026Z,11.25
2023-04-26T09:20:00.293Z,11.33
2023-04-26T09:23:25.566Z,11.25
2023-04-26T09:26:21.927Z,11.18
2023-04-26T09:36:33.967Z,11.25
2023-04-26T09:38:07.810Z,11.28
2023-04-26T09:44:52.915Z,11.40
2023-04-26T09:47:20.131Z,11.46
2023-04-26T09:50:16.612Z,11.39
2023-04-26T09:51:45.560Z,11.37
2023-04-26T09:53:14.580Z,11.35
2023-04-26T09:55:41.661Z,11.40
2023-04-26T09:58:08.840Z,11.35
2023-04-26T10:00:06.874Z,11.33
2023-04-26T10:01:35.996Z,11.25
2023-04-26T10:04:03.263Z,11.06
2023-04-26T10:07:29.054Z,10.97
2023-04-26T10:13:49.415Z,11.00
2023-04-26T10:15:18.306Z,11.06
2023-04-26T10:19:13.074Z,11.14
2023-04-26T10:20:41.560Z,11.17
2023-04-26T10:22:11.487Z,11.19
2023-04-26T10:24:37.667Z,11.00
2023-04-26T10:27:05.112Z,11.06
2023-04-26T10:36:19.095Z,11.37
2023-04-26T10:38:46.448Z,11.47
2023-04-26T10:41:42.554Z,11.64
2023-04-26T10:47:09.212Z,11.94
2023-04-26T10:50:05.877Z,12.01
2023-04-26T10:54:29.512Z,11.94
2023-04-26T10:57:25.587Z,11.94
2023-04-26T10:58:25.684Z,12.01
2023-04-26T10:59:39.783Z,11.99
2023-04-26T11:02:22.779Z,12.04
2023-04-26T11:07:45.094Z,11.99
2023-04-26T11:16:59.512Z,12.21
2023-04-26T11:18:57.410Z,12.13
2023-04-26T11:22:51.810Z,12.14
2023-04-26T11:27:44.670Z,12.28
2023-04-26T11:29:13.699Z,12.38
2023-04-26T11:30:42.667Z,12.38
2023-04-26T11:32:40.717Z,12.31
2023-04-26T11:35:07.754Z,12.42
2023-04-26T11:36:37.461Z,12.41
2023-04-26T11:39:32.949Z,12.39
2023-04-26T11:44:26.028Z,12.65
2023-04-26T11:45:55.221Z,12.72
2023-04-26T11:47:24.241Z,12.85
2023-04-26T11:50:20.268Z,12.82
2023-04-26T11:56:10.486Z,12.83
2023-04-26T11:58:37.541Z,12.90
2023-04-26T12:03:01.491Z,12.71
2023-04-26T12:05:28.449Z,12.71
2023-04-26T12:12:17.428Z,12.47
2023-04-26T12:16:22.320Z,12.54
2023-04-26T12:18:30.621Z,12.67
2023-04-26T12:23:51.926Z,12.71
2023-04-26T12:26:19.268Z,12.71
2023-04-26T12:30:42.781Z,12.72
2023-04-26T12:35:35.243Z,12.86
2023-04-26T12:38:02.517Z,12.74
2023-04-26T12:40:58.918Z,12.79
2023-04-26T12:43:55.055Z,12.75
2023-04-26T12:50:15.592Z,12.72
2023-04-26T12:53:39.821Z,12.77
2023-04-26T12:56:07.412Z,12.71
2023-04-26T12:58:34.572Z,12.67
2023-04-26T13:06:51.473Z,12.56
2023-04-26T13:08:49.529Z,12.59
2023-04-26T13:13:12.920Z,12.56
2023-04-26T13:14:42.268Z,12.47
2023-04-26T13:17:38.730Z,12.46
2023-04-26T13:19:07.600Z,12.37
2023-04-26T13:24:57.848Z,12.46
2023-04-26T13:28:52.447Z,12.54
2023-04-26T13:32:47.862Z,12.56
2023-04-26T13:34:46.874Z,12.52
2023-04-26T13:36:14.464Z,12.54
2023-04-26T13:38:41.256Z,12.50
2023-04-26T13:44:32.013Z,12.54
2023-04-26T13:45:35.701Z,12.59
2023-04-26T13:46:32.449Z,12.62
2023-04-26T13:48:30.034Z,12.53
2023-04-26T13:58:15.034Z,12.64
2023-04-26T14:01:10.416Z,12.59
2023-04-26T14:03:37.617Z,12.60
2023-04-26T14:05:35.629Z,12.68
2023-04-26T14:10:28.306Z,12.77
2023-04-26T14:13:54.450Z,12.83
2023-04-26T14:15:22.502Z,12.86
2023-04-26T14:21:42.381Z,12.79
2023-04-26T14:26:35.442Z,12.65
2023-04-26T14:30:00.691Z,12.60
2023-04-26T14:44:35.245Z,12.62
2023-04-26T14:46:04.481Z,12.70
2023-04-26T14:48:31.668Z,12.72
2023-04-26T14:50:00.638Z,12.75
2023-04-26T14:53:54.783Z,12.86
2023-04-26T14:55:52.842Z,13.03
2023-04-26T14:58:22.151Z,13.10
2023-04-26T15:01:45.259Z,13.17
2023-04-26T15:03:14.305Z,13.22
2023-04-26T15:04:43.652Z,13.20
2023-04-26T15:07:18.029Z,13.12
2023-04-26T15:08:40.412Z,13.20
2023-04-26T15:10:38.490Z,13.17
2023-04-26T15:12:36.894Z,13.05
2023-04-26T15:15:04.009Z,12.96
2023-04-26T15:23:20.005Z,12.82
2023-04-26T15:27:14.076Z,12.85
2023-04-26T15:30:10.229Z,12.90
2023-04-26T15:41:21.346Z,12.82
2023-04-26T15:43:48.523Z,12.90
2023-04-26T15:45:17.548Z,12.93
2023-04-26T15:53:33.456Z,12.95
2023-04-26T15:58:55.276Z,12.96
2023-04-26T16:00:24.302Z,13.00
2023-04-26T16:03:20.671Z,12.95
2023-04-26T16:07:43.951Z,12.87
2023-04-26T16:12:36.798Z,12.85
2023-04-26T16:17:00.669Z,12.83
2023-04-26T16:23:20.506Z,12.95
2023-04-26T16:27:15.699Z,12.95
2023-04-26T16:29:33.714Z,12.95
2023-04-26T16:34:16.922Z,12.83
2023-04-26T16:40:07.696Z,12.71
2023-04-26T16:48:24.043Z,12.71
2023-04-26T16:52:18.302Z,12.71
2023-04-26T16:55:14.474Z,12.72
2023-04-26T16:56:43.538Z,12.68
2023-04-26T17:04:02.118Z,12.70
2023-04-26T17:08:25.123Z,12.68
2023-04-26T17:15:42.819Z,12.64
2023-04-26T17:18:39.515Z,12.62
2023-04-26T17:21:36.062Z,12.59
2023-04-26T17:23:04.951Z,12.59
2023-04-26T17:24:33.977Z,12.62
2023-04-26T17:31:22.972Z,12.60
2023-04-26T17:33:21.232Z,12.60
2023-04-26T17:36:46.894Z,12.53
2023-04-26T17:38:16.527Z,12.57
2023-04-26T17:39:44.838Z,12.59
2023-04-26T17:44:38.365Z,12.50
2023-04-26T17:48:04.009Z,12.52
2023-04-26T17:49:32.829Z,12.52
2023-04-26T17:54:25.101Z,12.46
2023-04-26T17:56:23.268Z,12.47
2023-04-26T17:57:52.216Z,12.49
2023-04-26T18:01:47.064Z,12.52
2023-04-26T18:04:43.610Z,12.50
2023-04-26T18:08:08.976Z,12.49
2023-04-26T18:13:30.422Z,12.50
2023-04-26T18:15:28.477Z,12.49
2023-04-26T18:17:26.626Z,12.46
2023-04-26T18:26:41.588Z,12.37
2023-04-26T18:32:07.619Z,12.32
2023-04-26T18:35:32.981Z,12.35
2023-04-26T18:37:31.037Z,12.34
2023-04-26T18:41:54.704Z,12.31
2023-04-26T18:45:50.160Z,12.28
2023-04-26T18:47:18.120Z,12.28
2023-04-26T18:49:45.316Z,12.31
2023-04-26T18:51:43.444Z,12.35
2023-04-26T18:53:41.584Z,12.32
2023-04-26T18:58:34.322Z,12.23
2023-04-26T19:00:03.287Z,12.24
2023-04-26T19:02:01.494Z,12.23
2023-04-26T19:03:01.452Z,12.20
2023-04-26T19:04:01.462Z,12.23
2023-04-26T19:06:57.858Z,12.19
2023-04-26T19:08:26.859Z,12.20
2023-04-26T19:10:54.080Z,12.16
2023-04-26T19:16:15.772Z,12.12
2023-04-26T19:21:08.135Z,12.12
2023-04-26T19:22:37.137Z,12.14
2023-04-26T19:27:00.831Z,12.17
2023-04-26T19:28:29.912Z,12.21
2023-04-26T19:30:27.940Z,12.24
2023-04-26T19:31:57.029Z,12.23
2023-04-26T19:34:53.215Z,12.24
2023-04-26T19:37:50.739Z,12.20
2023-04-26T19:40:17.997Z,12.17
2023-04-26T19:44:12.894Z,12.13
2023-04-26T19:46:01.298Z,12.14
2023-04-26T19:51:52.384Z,12.04
2023-04-26T19:57:44.875Z,11.96
2023-04-26T20:05:03.365Z,11.80
2023-04-26T20:07:00.949Z,11.79
2023-04-26T20:08:58.658Z,11.75
2023-04-26T20:10:57.070Z,11.72
2023-04-26T20:12:26.121Z,11.65
2023-04-26T20:13:55.097Z,11.69
2023-04-26T20:15:24.332Z,11.65
2023-04-26T20:20:46.543Z,11.57
2023-04-26T20:25:10.391Z,11.60
2023-04-26T20:28:37.511Z,11.62
2023-04-26T20:32:01.464Z,11.60
2023-04-26T20:35:56.308Z,11.39
2023-04-26T20:37:25.328Z,11.37
2023-04-26T20:39:52.478Z,11.32
2023-04-26T20:41:52.534Z,11.28
2023-04-26T20:45:15.952Z,11.18
2023-04-26T20:48:12.111Z,11.11
2023-04-26T20:52:35.237Z,10.96
2023-04-26T20:54:04.250Z,10.94
2023-04-26T20:55:33.262Z,10.91
2023-04-26T21:02:22.217Z,10.76
2023-04-26T21:07:20.054Z,10.68
2023-04-26T21:09:18.541Z,10.64
2023-04-26T21:10:47.073Z,10.66
2023-04-26T21:12:45.166Z,10.73
2023-04-26T21:14:14.146Z,10.71
2023-04-26T21:19:36.951Z,10.68
2023-04-26T21:21:33.887Z,10.71
2023-04-26T21:23:31.913Z,10.66
2023-04-26T21:27:58.308Z,10.63
2023-04-26T21:29:55.241Z,10.63
2023-04-26T21:32:21.976Z,10.51
2023-04-26T21:35:47.701Z,10.48
2023-04-26T21:37:45.690Z,10.55
2023-04-26T21:41:10.955Z,10.44
2023-04-26T21:45:05.535Z,10.45
2023-04-26T21:48:42.079Z,10.45
2023-04-26T21:50:40.847Z,10.45
2023-04-26T21:52:09.826Z,10.44
2023-04-26T21:53:38.880Z,10.40
2023-04-26T21:56:05.949Z,10.38
2023-04-26T21:58:03.985Z,10.36
2023-04-26T22:00:02.116Z,10.27
2023-04-26T22:02:00.279Z,10.15
2023-04-26T22:05:26.471Z,10.17
2023-04-26T22:13:13.030Z,9.93
2023-04-26T22:14:42.281Z,9.91
2023-04-26T22:16:11.074Z,9.93
2023-04-26T22:19:12.413Z,9.83
2023-04-26T22:21:10.291Z,9.79
2023-04-26T22:25:04.620Z,9.74
2023-04-26T22:27:32.339Z,9.71
2023-04-26T22:29:00.634Z,9.79
2023-04-26T22:31:57.072Z,9.72
2023-04-26T22:34:24.182Z,9.71
2023-04-26T22:37:21.539Z,9.66
2023-04-26T22:39:47.690Z,9.58
2023-04-26T22:41:45.766Z,9.65
2023-04-26T22:44:14.827Z,9.54
2023-04-26T22:48:39.482Z,9.47
2023-04-26T22:51:35.774Z,9.47
2023-04-26T22:53:04.863Z,9.46
2023-04-26T22:54:33.871Z,9.48
2023-04-26T22:57:01.062Z,9.54
2023-04-26T22:58:59.093Z,9.48
2023-04-26T23:01:55.540Z,9.40
2023-04-26T23:05:20.816Z,9.48
2023-04-26T23:06:50.238Z,9.46
2023-04-26T23:08:48.710Z,9.35
2023-04-26T23:13:11.459Z,9.35
2023-04-26T23:14:40.619Z,9.40
2023-04-26T23:16:09.419Z,9.48
2023-04-26T23:20:33.843Z,9.24
2023-04-26T23:23:59.455Z,9.15
2023-04-26T23:25:28.674Z,9.14
2023-04-26T23:27:26.577Z,9.04
2023-04-26T23:31:21.764Z,8.89
2023-04-26T23:33:19.750Z,8.84
2023-04-26T23:39:11.122Z,9.01
2023-04-26T23:46:58.364Z,8.80
2023-04-26T23:51:21.749Z,8.86
2023-04-26T23:53:54.050Z,8.77
2023-04-26T23:58:17.810Z,8.63
